KEVB/EVB METAR and TAF weather

Enter ICAO airport designator
Station Type Date Time Source
KEVB METAR 2021/07/24 19:47 UTC NOAA

KEVB 241947Z 05010G17KT 10SM SCT025 BKN080 30/24 A2997


Station Type Date Time Source
KEVB Decoded METAR 2021/07/24 19:47 UTC NOAA

New Smyrna Beach, New Smyrna Beach Municipal Airport, FL, United States (KEVB) 29-03-20N 080-56-54W
Jul 24, 2021 - 03:47 PM EDT / 2021.07.24 1947 UTC
Wind: from the NE (050 degrees) at 12 MPH (10 KT) gusting to 20 MPH (17 KT):0
Visibility: 10 mile(s):0
Sky conditions: mostly cloudy
Temperature: 86 F (30 C)
Heat index: 95.0 F (35.0 C):1
Dew Point: 75 F (24 C)
Relative Humidity: 70%
Pressure (altimeter): 29.97 in. Hg (1014 hPa)
ob: KEVB 241947Z 05010G17KT 10SM SCT025 BKN080 30/24 A2997
cycle: 20

Station Type Date Time Source
KEVB TAF UTC NOAA

Error!

Example: see airport list